createdAt,value
2019-02-26T00:02:03.028Z,6.70
2019-02-26T00:04:36.864Z,7.57
2019-02-26T00:07:08.618Z,6.70
2019-02-26T00:09:40.564Z,5.80
2019-02-26T00:12:12.582Z,6.80
2019-02-26T00:14:45.325Z,5.57
2019-02-26T00:17:19.572Z,5.07
2019-02-26T00:19:51.779Z,6.60
2019-02-26T00:22:23.730Z,6.93
2019-02-26T00:24:55.656Z,5.97
2019-02-26T00:27:28.199Z,5.77
2019-02-26T00:30:01.328Z,5.50
2019-02-26T00:32:33.908Z,6.33
2019-02-26T00:35:06.939Z,6.03
2019-02-26T00:37:38.865Z,6.17
2019-02-26T00:40:12.354Z,5.77
2019-02-26T00:42:44.639Z,5.60
2019-02-26T00:45:16.789Z,6.57
2019-02-26T00:47:48.734Z,7.67
2019-02-26T00:50:20.676Z,7.27
2019-02-26T00:52:54.625Z,6.10
2019-02-26T00:55:29.369Z,5.63
2019-02-26T00:58:01.067Z,5.83
2019-02-26T01:00:35.364Z,7.47
2019-02-26T01:03:09.255Z,5.90
2019-02-26T01:05:42.681Z,6.13
2019-02-26T01:08:17.387Z,5.90
2019-02-26T01:10:48.921Z,5.60
2019-02-26T01:13:22.512Z,6.97
2019-02-26T01:15:54.510Z,5.90
2019-02-26T01:18:26.853Z,6.57
2019-02-26T01:21:01.985Z,6.80
2019-02-26T01:23:33.731Z,7.23
2019-02-26T01:26:05.672Z,6.73
2019-02-26T01:28:39.563Z,7.47
2019-02-26T01:31:11.300Z,6.43
2019-02-26T01:33:43.292Z,6.23
2019-02-26T01:36:16.225Z,5.70
2019-02-26T01:38:50.880Z,5.40
2019-02-26T01:41:24.537Z,5.27
2019-02-26T01:43:56.116Z,5.10
2019-02-26T01:46:29.904Z,4.97
2019-02-26T01:49:02.177Z,5.90
2019-02-26T01:51:35.329Z,6.63
2019-02-26T01:54:10.374Z,6.03
2019-02-26T01:56:42.598Z,5.70
2019-02-26T01:59:18.323Z,4.93
2019-02-26T02:01:49.684Z,5.83
2019-02-26T02:04:21.785Z,5.77
2019-02-26T02:06:54.916Z,5.27
2019-02-26T02:09:27.364Z,5.57
2019-02-26T02:12:00.002Z,4.60
2019-02-26T02:14:32.938Z,4.57
2019-02-26T02:17:06.039Z,5.33
2019-02-26T02:19:38.651Z,5.43
2019-02-26T02:22:12.188Z,5.50
2019-02-26T02:24:46.202Z,4.97
2019-02-26T02:27:20.333Z,4.67
2019-02-26T02:29:54.826Z,5.30
2019-02-26T02:32:26.623Z,5.67
2019-02-26T02:35:03.453Z,5.07
2019-02-26T02:37:32.460Z,5.70
2019-02-26T02:40:04.727Z,4.77
2019-02-26T02:42:37.712Z,5.03
2019-02-26T02:45:15.501Z,4.67
2019-02-26T02:47:45.085Z,4.23
2019-02-26T02:50:18.315Z,4.43
2019-02-26T02:52:51.441Z,4.43
2019-02-26T02:55:24.243Z,4.80
2019-02-26T02:57:58.453Z,5.67
2019-02-26T03:00:32.253Z,5.47
2019-02-26T03:03:03.437Z,5.30
2019-02-26T03:05:38.065Z,5.17
2019-02-26T03:08:10.868Z,4.90
2019-02-26T03:10:44.942Z,4.83
2019-02-26T03:13:16.947Z,5.93
2019-02-26T03:15:51.049Z,5.07
2019-02-26T03:18:23.556Z,5.80
2019-02-26T03:20:56.703Z,5.33
2019-02-26T03:23:30.840Z,4.53
2019-02-26T03:26:02.780Z,4.50
2019-02-26T03:28:37.176Z,5.23
2019-02-26T03:31:08.339Z,4.23
2019-02-26T03:33:40.277Z,3.63
2019-02-26T03:36:14.125Z,3.90
2019-02-26T03:38:48.383Z,4.63
2019-02-26T03:41:22.693Z,4.87
2019-02-26T03:43:54.437Z,4.20
2019-02-26T03:46:26.828Z,4.33
2019-02-26T03:49:02.495Z,4.83
2019-02-26T03:51:32.386Z,5.23
2019-02-26T03:54:04.328Z,5.17
2019-02-26T03:56:36.369Z,4.37
2019-02-26T03:59:09.535Z,5.73
2019-02-26T04:01:42.972Z,6.23
2019-02-26T04:04:14.912Z,5.77
2019-02-26T04:06:47.227Z,5.13
2019-02-26T04:09:21.883Z,5.80
2019-02-26T04:11:53.463Z,5.43
2019-02-26T04:14:28.795Z,5.77
2019-02-26T04:17:01.502Z,5.60
2019-02-26T04:19:33.963Z,5.23
2019-02-26T04:22:31.237Z,4.90
2019-02-26T04:25:54.049Z,5.80
2019-02-26T04:28:47.427Z,4.77
2019-02-26T04:31:54.756Z,5.13
2019-02-26T04:35:08.243Z,5.87
2019-02-26T04:38:55.663Z,5.97
2019-02-26T04:41:44.332Z,6.57
2019-02-26T04:45:11.945Z,6.20
2019-02-26T04:47:45.920Z,7.43
2019-02-26T04:50:17.488Z,5.27
2019-02-26T04:52:49.418Z,4.37
2019-02-26T04:55:21.324Z,6.57
2019-02-26T04:57:56.296Z,6.97
2019-02-26T05:00:30.415Z,5.03
2019-02-26T05:03:01.860Z,5.53
2019-02-26T05:05:36.924Z,4.43
2019-02-26T05:08:09.952Z,4.70
2019-02-26T05:10:41.114Z,5.00
2019-02-26T05:13:13.036Z,4.30
2019-02-26T05:15:44.934Z,4.83
2019-02-26T05:18:17.731Z,4.70
2019-02-26T05:20:50.462Z,5.10
2019-02-26T05:23:23.269Z,3.67
2019-02-26T05:26:02.969Z,4.40
2019-02-26T05:28:35.346Z,4.17
2019-02-26T05:31:06.493Z,4.17
2019-02-26T05:33:39.282Z,5.90
2019-02-26T05:36:12.091Z,5.13
2019-02-26T05:38:44.867Z,4.93
2019-02-26T05:41:17.051Z,5.67
2019-02-26T05:43:55.265Z,5.67
2019-02-26T05:46:26.394Z,5.50
2019-02-26T05:48:57.437Z,5.40
2019-02-26T05:51:31.990Z,5.40
2019-02-26T05:54:07.796Z,4.60
2019-02-26T05:56:37.245Z,5.47
2019-02-26T05:59:13.330Z,4.63
2019-02-26T06:01:46.481Z,5.53
2019-02-26T06:04:20.490Z,5.47
2019-02-26T06:06:55.579Z,5.07
2019-02-26T06:09:26.152Z,5.77
2019-02-26T06:11:58.623Z,5.60
2019-02-26T06:14:33.127Z,4.97
2019-02-26T06:17:04.371Z,5.00
2019-02-26T06:19:50.246Z,4.87
2019-02-26T06:22:24.313Z,4.20
2019-02-26T06:24:59.569Z,4.37
2019-02-26T06:27:29.434Z,5.10
2019-02-26T06:30:05.961Z,4.77
2019-02-26T06:32:37.150Z,4.47
2019-02-26T06:35:11.679Z,5.17
2019-02-26T06:37:44.388Z,5.60
2019-02-26T06:40:16.656Z,7.33
2019-02-26T06:42:48.587Z,9.63
2019-02-26T06:45:20.512Z,9.83
2019-02-26T06:47:54.620Z,6.50
2019-02-26T06:50:26.179Z,7.03
2019-02-26T06:52:58.106Z,9.77
2019-02-26T06:55:30.037Z,9.83
2019-02-26T06:58:28.228Z,6.07
2019-02-26T07:01:01.249Z,5.83
2019-02-26T07:03:33.206Z,6.17
2019-02-26T07:06:05.136Z,5.43
2019-02-26T07:08:37.060Z,6.67
2019-02-26T07:11:09.012Z,7.77
2019-02-26T07:13:43.983Z,13.77
2019-02-26T07:16:18.120Z,11.30
2019-02-26T07:18:50.237Z,11.37
2019-02-26T07:21:22.168Z,9.93
2019-02-26T07:23:56.314Z,6.97
2019-02-26T07:26:27.743Z,6.33
2019-02-26T07:28:59.680Z,5.70
2019-02-26T07:31:33.609Z,5.83
2019-02-26T07:34:05.240Z,4.60
2019-02-26T07:36:37.183Z,4.90
2019-02-26T07:39:10.387Z,4.00
2019-02-26T07:41:44.648Z,4.50
2019-02-26T07:44:18.641Z,5.00
2019-02-26T07:46:50.987Z,4.53
2019-02-26T07:49:23.081Z,4.33
2019-02-26T07:51:56.117Z,5.27
2019-02-26T07:54:29.093Z,4.33
2019-02-26T07:57:02.649Z,4.85
2019-02-26T07:59:36.824Z,4.37
2019-02-26T08:02:09.436Z,4.80
2019-02-26T08:04:43.640Z,6.17
2019-02-26T08:07:15.730Z,6.53
2019-02-26T08:09:47.860Z,6.30
2019-02-26T08:12:19.889Z,6.43
2019-02-26T08:14:51.901Z,5.40
2019-02-26T08:17:23.914Z,3.67
2019-02-26T08:19:55.926Z,4.70
2019-02-26T08:22:30.015Z,5.83
2019-02-26T08:25:01.723Z,6.03
2019-02-26T08:27:35.555Z,6.17
2019-02-26T08:30:15.471Z,7.57
2019-02-26T08:32:51.160Z,6.63
2019-02-26T08:35:21.936Z,7.13
2019-02-26T08:37:54.017Z,6.20
2019-02-26T08:40:26.101Z,4.97
2019-02-26T08:42:58.129Z,5.10
2019-02-26T08:45:31.018Z,4.77
2019-02-26T08:48:03.317Z,5.30
2019-02-26T08:50:36.160Z,6.47
2019-02-26T08:53:09.498Z,6.00
2019-02-26T08:55:41.654Z,6.30
2019-02-26T08:58:13.785Z,5.20
2019-02-26T09:00:45.800Z,5.70
2019-02-26T09:03:20.316Z,5.60
2019-02-26T09:05:53.825Z,5.90
2019-02-26T09:08:25.352Z,4.50
2019-02-26T09:10:57.404Z,6.23
2019-02-26T09:13:31.646Z,5.80
2019-02-26T09:16:05.528Z,5.47
2019-02-26T09:18:38.705Z,6.40
2019-02-26T09:21:12.566Z,7.80
2019-02-26T09:23:47.383Z,6.10
2019-02-26T09:26:18.080Z,5.80
2019-02-26T09:28:52.286Z,5.47
2019-02-26T09:31:23.819Z,5.97
2019-02-26T09:33:55.913Z,5.60
2019-02-26T09:36:29.347Z,5.40
2019-02-26T09:39:03.291Z,5.43
2019-02-26T09:41:38.534Z,6.20
2019-02-26T09:44:11.756Z,5.70
2019-02-26T09:46:44.080Z,5.07
2019-02-26T09:49:16.193Z,4.70
2019-02-26T09:51:48.286Z,4.40
2019-02-26T09:54:22.528Z,4.27
2019-02-26T09:56:54.097Z,6.40
2019-02-26T09:59:27.132Z,5.20
2019-02-26T10:02:01.261Z,6.90
2019-02-26T10:04:33.706Z,6.23
2019-02-26T10:07:08.286Z,6.80
2019-02-26T10:09:40.710Z,5.33
2019-02-26T10:12:15.670Z,5.17
2019-02-26T10:14:47.067Z,6.17
2019-02-26T10:17:21.400Z,4.83
2019-02-26T10:19:54.454Z,5.00
2019-02-26T10:22:28.947Z,5.80
2019-02-26T10:25:00.412Z,5.83
2019-02-26T10:27:35.768Z,4.53
2019-02-26T10:30:08.420Z,4.70
2019-02-26T10:32:40.579Z,5.73
2019-02-26T10:35:16.590Z,5.23
2019-02-26T10:37:52.108Z,5.10
2019-02-26T10:40:34.266Z,5.10
2019-02-26T10:42:58.852Z,5.40
2019-02-26T10:45:35.985Z,5.30
2019-02-26T10:48:04.974Z,5.17
2019-02-26T10:50:39.263Z,6.07
2019-02-26T10:53:13.790Z,5.47
2019-02-26T10:55:44.441Z,4.73
2019-02-26T10:58:16.531Z,5.40
2019-02-26T11:00:52.702Z,5.03
2019-02-26T11:03:23.984Z,3.80
2019-02-26T11:05:56.074Z,5.87
2019-02-26T11:08:29.635Z,3.57
2019-02-26T11:11:04.507Z,3.30
2019-02-26T11:13:37.290Z,3.10
2019-02-26T11:16:09.584Z,5.40
2019-02-26T11:18:42.723Z,4.53
2019-02-26T11:21:15.313Z,5.50
2019-02-26T11:23:47.413Z,5.07
2019-02-26T11:26:19.520Z,6.00
2019-02-26T11:28:51.542Z,4.37
2019-02-26T11:31:25.536Z,5.20
2019-02-26T11:34:00.097Z,5.00
2019-02-26T11:36:32.974Z,5.20
2019-02-26T11:39:06.904Z,4.50
2019-02-26T11:41:39.967Z,4.20
2019-02-26T11:44:14.721Z,5.37
2019-02-26T11:46:46.749Z,4.43
2019-02-26T11:49:21.673Z,5.97
2019-02-26T11:51:53.193Z,4.27
2019-02-26T11:54:25.284Z,6.10
2019-02-26T11:56:57.309Z,3.97
2019-02-26T11:59:31.605Z,5.43
2019-02-26T12:02:06.275Z,5.13
2019-02-26T12:04:37.678Z,4.37
2019-02-26T12:07:10.399Z,5.13
2019-02-26T12:09:43.340Z,4.40
2019-02-26T12:12:15.464Z,4.35
2019-02-26T12:14:48.519Z,4.00
2019-02-26T12:17:20.702Z,3.60
2019-02-26T12:19:55.770Z,5.20
2019-02-26T12:22:29.871Z,5.45
2019-02-26T12:25:05.119Z,3.13
2019-02-26T12:27:36.607Z,4.33
2019-02-26T12:30:15.803Z,4.30
2019-02-26T12:32:50.510Z,2.93
2019-02-26T12:35:23.912Z,5.03
2019-02-26T12:37:59.379Z,3.73
2019-02-26T12:40:29.632Z,4.10
2019-02-26T12:43:02.731Z,3.60
2019-02-26T12:45:38.706Z,4.77
2019-02-26T12:50:42.997Z,4.87
2019-02-26T12:53:17.848Z,4.20
2019-02-26T12:55:48.817Z,3.80
2019-02-26T12:58:23.694Z,4.57
2019-02-26T13:00:54.602Z,3.30
2019-02-26T13:03:26.703Z,4.50
2019-02-26T13:05:58.802Z,4.43
2019-02-26T13:08:31.950Z,3.00
2019-02-26T13:11:04.130Z,4.30
2019-02-26T13:13:36.277Z,3.57
2019-02-26T13:16:08.416Z,2.63
2019-02-26T13:18:40.514Z,4.70
2019-02-26T13:23:46.335Z,3.10
2019-02-26T13:26:21.840Z,2.67
2019-02-26T13:28:53.578Z,3.40
2019-02-26T13:31:26.131Z,3.00
2019-02-26T13:33:58.352Z,5.37
2019-02-26T13:36:30.567Z,5.03
2019-02-26T13:39:03.593Z,4.10
2019-02-26T13:41:38.893Z,4.60
2019-02-26T13:44:09.740Z,3.40
2019-02-26T13:46:41.942Z,4.30
2019-02-26T13:49:13.966Z,3.50
2019-02-26T13:51:46.093Z,2.80
2019-02-26T13:54:18.119Z,3.00
2019-02-26T13:56:50.200Z,2.60
2019-02-26T13:59:22.292Z,2.90
2019-02-26T14:01:54.387Z,2.23
2019-02-26T14:04:26.717Z,2.60
2019-02-26T14:06:58.786Z,2.13
2019-02-26T14:09:30.886Z,3.10
2019-02-26T14:12:02.976Z,4.17
2019-02-26T14:14:35.219Z,3.47
2019-02-26T14:17:07.294Z,2.97
2019-02-26T14:19:39.382Z,3.90
2019-02-26T14:22:11.463Z,3.00
2019-02-26T14:24:43.553Z,3.07
2019-02-26T14:27:15.638Z,2.57
2019-02-26T14:29:47.995Z,3.30
2019-02-26T14:32:20.082Z,2.73
2019-02-26T14:34:52.180Z,3.10
2019-02-26T14:37:24.266Z,2.90
2019-02-26T14:39:56.287Z,2.47
2019-02-26T14:42:28.303Z,2.63
2019-02-26T14:45:00.391Z,2.60
2019-02-26T14:47:32.452Z,2.27
2019-02-26T14:50:04.805Z,2.30
2019-02-26T14:52:36.817Z,2.00
2019-02-26T14:55:09.525Z,2.67
2019-02-26T14:57:41.663Z,2.43
2019-02-26T15:00:18.581Z,2.80
2019-02-26T15:02:50.972Z,2.13
2019-02-26T15:05:23.279Z,2.83
2019-02-26T15:07:55.369Z,2.70
2019-02-26T15:10:27.493Z,2.70
2019-02-26T15:12:59.787Z,2.60
2019-02-26T15:15:31.903Z,2.10
2019-02-26T15:18:03.994Z,1.90
2019-02-26T15:20:36.086Z,1.90
2019-02-26T15:23:08.372Z,1.90
2019-02-26T15:25:40.467Z,2.83
2019-02-26T15:28:12.548Z,2.77
2019-02-26T15:30:44.667Z,2.17
2019-02-26T15:33:16.866Z,2.57
2019-02-26T15:35:48.961Z,2.33
2019-02-26T15:38:21.057Z,2.70
2019-02-26T15:40:53.319Z,2.57
2019-02-26T15:43:25.546Z,2.47
2019-02-26T15:45:57.773Z,2.90
2019-02-26T15:48:33.638Z,2.50
2019-02-26T15:51:13.942Z,3.30
2019-02-26T15:53:38.798Z,2.80
2019-02-26T15:56:10.887Z,2.20
2019-02-26T15:58:42.985Z,1.70
2019-02-26T16:01:15.759Z,2.30
2019-02-26T16:03:47.861Z,2.73
2019-02-26T16:06:20.281Z,2.40
2019-02-26T16:08:52.362Z,2.73
2019-02-26T16:11:25.945Z,1.70
2019-02-26T16:13:59.838Z,1.50
2019-02-26T16:16:31.987Z,1.70
2019-02-26T16:19:04.080Z,1.80
2019-02-26T16:21:36.196Z,1.70
2019-02-26T16:24:08.291Z,1.80
2019-02-26T16:26:40.993Z,1.87
2019-02-26T16:29:13.589Z,1.80
2019-02-26T16:31:45.615Z,1.87
2019-02-26T16:34:19.964Z,2.10
2019-02-26T16:36:51.417Z,2.13
2019-02-26T16:39:24.712Z,2.50
2019-02-26T16:41:57.239Z,2.63
2019-02-26T16:44:29.605Z,2.40
2019-02-26T16:47:01.770Z,3.10
2019-02-26T16:49:33.865Z,5.53
2019-02-26T16:52:06.072Z,6.17
2019-02-26T16:54:38.657Z,6.70
2019-02-26T16:57:11.980Z,8.23
2019-02-26T16:59:44.070Z,7.10
2019-02-26T17:02:16.472Z,8.13
2019-02-26T17:04:48.559Z,8.43
2019-02-26T17:07:20.761Z,8.33
2019-02-26T17:09:55.460Z,9.10
2019-02-26T17:12:29.159Z,8.00
2019-02-26T17:15:00.680Z,8.73
2019-02-26T17:17:34.395Z,9.40
2019-02-26T17:20:07.552Z,8.50
2019-02-26T17:22:41.054Z,7.70
2019-02-26T17:25:13.760Z,6.43
2019-02-26T17:27:46.385Z,6.40
2019-02-26T17:30:20.840Z,6.27
2019-02-26T17:32:52.658Z,4.57
2019-02-26T17:35:28.749Z,4.43
2019-02-26T17:37:58.551Z,3.70
2019-02-26T17:40:30.643Z,4.20
2019-02-26T17:43:02.839Z,3.37
2019-02-26T17:45:37.152Z,3.07
2019-02-26T17:48:08.720Z,3.10
2019-02-26T17:50:43.298Z,4.53
2019-02-26T17:53:14.303Z,4.83
2019-02-26T17:55:46.975Z,3.40
2019-02-26T17:58:18.998Z,4.07
2019-02-26T18:00:54.840Z,3.57
2019-02-26T18:03:26.872Z,3.80
2019-02-26T18:05:58.801Z,4.50
2019-02-26T18:08:30.731Z,3.80
2019-02-26T18:11:02.719Z,3.40
2019-02-26T18:13:34.653Z,3.30
2019-02-26T18:16:09.418Z,3.30
2019-02-26T18:18:40.328Z,3.70
2019-02-26T18:21:15.048Z,3.63
2019-02-26T18:23:46.996Z,3.70
2019-02-26T18:26:18.925Z,3.63
2019-02-26T18:28:50.854Z,3.40
2019-02-26T18:31:26.467Z,4.13
2019-02-26T18:33:56.439Z,3.87
2019-02-26T18:36:28.362Z,4.33
2019-02-26T18:39:00.292Z,4.47
2019-02-26T18:41:35.064Z,4.30
2019-02-26T18:44:04.781Z,5.13
2019-02-26T18:46:36.709Z,4.70
2019-02-26T18:49:08.639Z,4.57
2019-02-26T18:51:40.566Z,5.83
2019-02-26T18:54:12.496Z,4.30
2019-02-26T18:56:44.416Z,4.10
2019-02-26T18:59:16.358Z,4.30
2019-02-26T19:01:48.284Z,4.90
2019-02-26T19:04:20.212Z,3.90
2019-02-26T19:06:53.113Z,5.93
2019-02-26T19:09:25.177Z,6.47
2019-02-26T19:11:57.776Z,6.10
2019-02-26T19:14:30.279Z,5.73
2019-02-26T19:17:02.203Z,5.30
2019-02-26T19:19:34.142Z,4.63
2019-02-26T19:22:06.076Z,4.77
2019-02-26T19:24:38.002Z,5.03
2019-02-26T19:27:09.941Z,4.83
2019-02-26T19:29:41.873Z,4.10
2019-02-26T19:32:15.724Z,4.50
2019-02-26T19:34:47.428Z,4.63
2019-02-26T19:37:22.347Z,4.73
2019-02-26T19:39:53.061Z,4.10
2019-02-26T19:42:25.033Z,5.07
2019-02-26T19:44:56.979Z,4.60
2019-02-26T19:47:28.908Z,4.50
2019-02-26T19:50:00.832Z,4.47
2019-02-26T19:52:32.770Z,5.37
2019-02-26T19:55:05.981Z,4.87
2019-02-26T19:57:38.023Z,4.60
2019-02-26T20:00:11.385Z,5.03
2019-02-26T20:02:43.323Z,4.30
2019-02-26T20:05:15.524Z,5.03
2019-02-26T20:07:47.473Z,4.70
2019-02-26T20:10:19.841Z,4.70
2019-02-26T20:12:53.988Z,4.70
2019-02-26T20:15:25.576Z,4.60
2019-02-26T20:17:57.520Z,5.37
2019-02-26T20:20:29.496Z,5.20
2019-02-26T20:23:05.190Z,6.50
2019-02-26T20:25:35.130Z,7.57
2019-02-26T20:28:07.095Z,7.77
2019-02-26T20:30:39.050Z,8.73
2019-02-26T20:33:11.041Z,8.13
2019-02-26T20:35:45.137Z,8.70
2019-02-26T20:38:16.614Z,8.03
2019-02-26T20:40:49.475Z,9.00
2019-02-26T20:43:21.524Z,7.33
2019-02-26T20:45:54.637Z,7.97
2019-02-26T20:48:26.613Z,8.23
2019-02-26T20:50:58.636Z,7.57
2019-02-26T20:53:30.558Z,6.43
2019-02-26T20:56:02.481Z,6.73
2019-02-26T20:58:34.414Z,5.57
2019-02-26T21:01:06.448Z,4.73
2019-02-26T21:03:38.382Z,6.33
2019-02-26T21:06:10.510Z,5.47
2019-02-26T21:08:42.437Z,4.67
2019-02-26T21:11:14.409Z,4.20
2019-02-26T21:13:46.341Z,4.10
2019-02-26T21:16:18.582Z,4.13
2019-02-26T21:18:51.892Z,5.83
2019-02-26T21:21:23.823Z,5.93
2019-02-26T21:23:55.749Z,4.77
2019-02-26T21:26:27.956Z,5.40
2019-02-26T21:28:59.880Z,7.73
2019-02-26T21:31:31.819Z,7.43
2019-02-26T21:34:04.426Z,8.83
2019-02-26T21:36:36.393Z,8.47
2019-02-26T21:39:11.083Z,8.57
2019-02-26T21:41:42.533Z,7.40
2019-02-26T21:44:14.589Z,10.83
2019-02-26T21:46:46.561Z,8.90
2019-02-26T21:49:18.549Z,9.17
2019-02-26T21:51:50.489Z,9.40
2019-02-26T21:54:24.576Z,6.87
2019-02-26T21:56:56.068Z,8.33
2019-02-26T21:59:27.991Z,7.00
2019-02-26T22:01:59.925Z,7.67
2019-02-26T22:04:32.430Z,9.03
2019-02-26T22:07:04.379Z,6.93
2019-02-26T22:09:36.389Z,7.57
2019-02-26T22:12:08.317Z,7.37
2019-02-26T22:14:40.244Z,8.40
2019-02-26T22:17:13.960Z,8.43
2019-02-26T22:19:46.000Z,6.23
2019-02-26T22:22:18.042Z,8.10
2019-02-26T22:24:49.965Z,8.57
2019-02-26T22:27:21.899Z,7.57
2019-02-26T22:29:53.838Z,6.90
2019-02-26T22:32:25.743Z,8.40
2019-02-26T22:34:57.675Z,8.60
2019-02-26T22:37:29.564Z,8.47
2019-02-26T22:40:01.508Z,9.30
2019-02-26T22:42:33.389Z,8.90
2019-02-26T22:45:05.707Z,7.87
2019-02-26T22:47:40.404Z,8.07
2019-02-26T22:50:12.776Z,8.57
2019-02-26T22:52:45.072Z,6.63
2019-02-26T22:55:17.599Z,6.67
2019-02-26T22:57:49.721Z,7.57
2019-02-26T23:01:17.745Z,7.27
2019-02-26T23:03:49.894Z,8.07
2019-02-26T23:06:22.026Z,7.83
2019-02-26T23:08:53.952Z,7.20
2019-02-26T23:11:31.556Z,7.37
2019-02-26T23:14:02.613Z,7.90
2019-02-26T23:16:35.537Z,7.17
2019-02-26T23:19:07.571Z,6.90
2019-02-26T23:21:40.484Z,6.20
2019-02-26T23:24:12.618Z,6.63
2019-02-26T23:26:44.550Z,8.63
2019-02-26T23:29:16.576Z,7.77
2019-02-26T23:31:48.807Z,8.33
2019-02-26T23:34:22.618Z,7.77
2019-02-26T23:36:54.647Z,7.97
2019-02-26T23:39:26.835Z,8.07
2019-02-26T23:41:58.871Z,8.30
2019-02-26T23:44:30.803Z,8.60
2019-02-26T23:47:02.800Z,8.33
2019-02-26T23:49:34.731Z,6.50
2019-02-26T23:52:06.866Z,8.00
2019-02-26T23:54:39.952Z,6.83
2019-02-26T23:57:12.333Z,6.70
2019-02-26T23:59:44.266Z,7.60
